createdAt,value
2018-11-03T00:03:07.172Z,99.90
2018-11-03T00:08:10.806Z,99.90
2018-11-03T00:13:29.323Z,99.90
2018-11-03T00:18:32.955Z,99.90
2018-11-03T00:23:36.673Z,99.90
2018-11-03T00:28:40.300Z,99.90
2018-11-03T00:33:43.910Z,99.90
2018-11-03T00:38:47.520Z,99.90
2018-11-03T00:43:51.375Z,99.90
2018-11-03T00:48:55.003Z,99.90
2018-11-03T00:53:58.692Z,99.90
2018-11-03T00:59:02.408Z,99.90
2018-11-03T01:04:06.366Z,99.90
2018-11-03T01:09:10.070Z,99.90
2018-11-03T01:14:13.698Z,99.90
2018-11-03T01:19:17.387Z,99.90
2018-11-03T01:24:21.019Z,99.90
2018-11-03T01:29:24.739Z,99.90
2018-11-03T01:34:28.379Z,99.90
2018-11-03T01:39:32.029Z,99.90
2018-11-03T01:44:35.655Z,99.90
2018-11-03T01:49:39.299Z,99.90
2018-11-03T01:54:42.923Z,99.90
2018-11-03T01:59:46.566Z,99.90
2018-11-03T02:04:50.202Z,99.90
2018-11-03T02:09:53.863Z,99.90
2018-11-03T02:14:57.503Z,99.90
2018-11-03T02:20:01.148Z,99.90
2018-11-03T02:25:05.022Z,99.90
2018-11-03T02:30:09.679Z,99.90
2018-11-03T02:35:13.313Z,99.90
2018-11-03T02:40:16.939Z,99.90
2018-11-03T02:45:20.550Z,99.90
2018-11-03T02:50:24.236Z,99.90
2018-11-03T02:55:27.877Z,99.90
2018-11-03T03:00:31.533Z,99.90
2018-11-03T03:05:35.265Z,99.90
2018-11-03T03:10:38.899Z,99.90
2018-11-03T03:15:42.649Z,99.90
2018-11-03T03:20:46.295Z,99.90
2018-11-03T03:25:49.939Z,99.90
2018-11-03T03:30:53.638Z,99.90
2018-11-03T03:35:57.368Z,99.90
2018-11-03T03:41:01.011Z,99.90
2018-11-03T03:46:05.145Z,99.90
2018-11-03T03:51:08.759Z,99.90
2018-11-03T03:56:12.478Z,99.90
2018-11-03T04:01:16.139Z,99.90
2018-11-03T04:06:19.799Z,99.90
2018-11-03T04:11:23.435Z,99.90
2018-11-03T04:16:27.055Z,99.90
2018-11-03T04:21:31.319Z,99.90
2018-11-03T04:26:34.963Z,99.90
2018-11-03T04:31:38.602Z,99.90
2018-11-03T04:36:42.234Z,99.90
2018-11-03T04:41:45.960Z,99.90
2018-11-03T04:46:49.593Z,99.90
2018-11-03T04:51:53.248Z,99.90
2018-11-03T04:56:56.901Z,99.90
2018-11-03T05:02:00.635Z,99.90
2018-11-03T05:07:04.661Z,99.90
2018-11-03T05:12:08.299Z,99.90
2018-11-03T05:17:11.918Z,99.90
2018-11-03T05:22:15.543Z,99.90
2018-11-03T05:27:19.215Z,99.90
2018-11-03T05:32:22.853Z,99.90
2018-11-03T05:37:26.490Z,99.90
2018-11-03T05:42:30.195Z,99.90
2018-11-03T05:47:33.905Z,99.90
2018-11-03T05:52:37.548Z,99.90
2018-11-03T05:57:41.182Z,99.90
2018-11-03T06:02:44.823Z,99.90
2018-11-03T06:07:48.479Z,99.90
2018-11-03T06:12:52.116Z,99.90
2018-11-03T06:17:55.917Z,99.90
2018-11-03T06:22:59.631Z,99.90
2018-11-03T06:28:03.194Z,99.90
2018-11-03T06:33:06.871Z,99.90
2018-11-03T06:38:10.511Z,99.90
2018-11-03T06:43:14.134Z,99.90
2018-11-03T06:48:17.768Z,99.90
2018-11-03T06:53:21.467Z,99.90
2018-11-03T06:58:25.903Z,99.90
2018-11-03T07:03:29.545Z,99.90
2018-11-03T07:08:33.223Z,99.90
2018-11-03T07:13:36.839Z,99.90
2018-11-03T07:18:40.454Z,99.90
2018-11-03T07:23:44.283Z,99.90
2018-11-03T07:28:47.924Z,99.90
2018-11-03T07:33:51.544Z,99.90
2018-11-03T07:38:55.158Z,99.90
2018-11-03T07:43:58.784Z,99.90
2018-11-03T07:49:02.490Z,99.90
2018-11-03T07:54:06.079Z,99.90
2018-11-03T07:59:10.608Z,99.90
2018-11-03T08:04:14.272Z,99.90
2018-11-03T08:09:18.023Z,99.90
2018-11-03T08:14:21.513Z,99.90
2018-11-03T08:19:25.132Z,99.90
2018-11-03T08:24:28.903Z,99.90
2018-11-03T08:29:32.570Z,99.90
2018-11-03T08:34:36.243Z,99.90
2018-11-03T08:39:39.915Z,99.90
2018-11-03T08:44:45.182Z,99.90
2018-11-03T08:49:48.835Z,99.90
2018-11-03T08:54:52.511Z,99.90
2018-11-03T08:59:56.354Z,99.90
2018-11-03T09:04:59.852Z,99.90
2018-11-03T09:10:03.806Z,99.90
2018-11-03T09:15:14.522Z,99.90
2018-11-03T09:20:18.199Z,99.90
2018-11-03T09:25:21.891Z,99.90
2018-11-03T09:30:25.541Z,99.90
2018-11-03T09:35:29.299Z,99.90
2018-11-03T09:40:32.983Z,99.90
2018-11-03T09:45:36.682Z,99.90
2018-11-03T09:50:40.440Z,99.90
2018-11-03T09:55:48.649Z,99.90
2018-11-03T10:01:02.253Z,99.90
2018-11-03T10:06:05.968Z,99.90
2018-11-03T10:11:09.630Z,99.90
2018-11-03T10:16:13.359Z,99.90
2018-11-03T10:21:17.075Z,99.90
2018-11-03T10:26:20.915Z,99.90
2018-11-03T10:31:24.526Z,99.90
2018-11-03T10:36:28.199Z,99.90
2018-11-03T10:41:31.841Z,99.90
2018-11-03T10:46:35.748Z,99.90
2018-11-03T10:51:39.213Z,99.90
2018-11-03T10:56:42.849Z,99.90
2018-11-03T11:01:52.072Z,99.90
2018-11-03T11:07:01.181Z,99.90
2018-11-03T11:12:10.663Z,99.90
2018-11-03T11:17:14.379Z,99.90
2018-11-03T11:22:18.007Z,97.90
2018-11-03T11:27:21.709Z,95.00
2018-11-03T11:32:25.624Z,92.50
2018-11-03T11:37:29.290Z,94.60
2018-11-03T11:42:32.876Z,96.90
2018-11-03T11:47:36.587Z,83.20
2018-11-03T11:52:40.313Z,85.80
2018-11-03T11:57:43.926Z,90.60
2018-11-03T12:02:47.568Z,75.20
2018-11-03T12:07:51.272Z,76.00
2018-11-03T12:12:54.883Z,82.70
2018-11-03T12:17:58.513Z,86.40
2018-11-03T12:23:02.131Z,88.40
2018-11-03T12:28:05.801Z,90.70
2018-11-03T12:33:09.374Z,92.50
2018-11-03T12:38:13.003Z,92.20
2018-11-03T12:43:16.603Z,93.30
2018-11-03T12:48:20.397Z,94.20
2018-11-03T12:53:24.001Z,95.50
2018-11-03T12:58:27.671Z,95.30
2018-11-03T13:03:31.439Z,95.40
2018-11-03T13:08:35.067Z,95.60
2018-11-03T13:13:39.659Z,95.10
2018-11-03T13:18:43.318Z,94.30
2018-11-03T13:23:51.658Z,94.30
2018-11-03T13:28:55.323Z,94.30
2018-11-03T13:33:58.969Z,95.20
2018-11-03T13:39:02.574Z,96.40
2018-11-03T13:44:07.324Z,96.40
2018-11-03T13:49:10.985Z,96.30
2018-11-03T13:54:14.697Z,96.50
2018-11-03T13:59:18.390Z,97.20
2018-11-03T14:04:22.036Z,96.30
2018-11-03T14:09:25.756Z,96.60
2018-11-03T14:14:29.476Z,95.80
2018-11-03T14:19:33.146Z,96.30
2018-11-03T14:24:36.807Z,96.30
2018-11-03T14:29:40.531Z,95.90
2018-11-03T14:34:44.259Z,95.70
2018-11-03T14:39:47.983Z,95.80
2018-11-03T14:44:51.735Z,96.00
2018-11-03T14:49:55.368Z,96.40
2018-11-03T14:54:59.003Z,97.30
2018-11-03T15:00:03.167Z,98.20
2018-11-03T15:05:07.396Z,98.80
2018-11-03T15:10:11.919Z,98.90
2018-11-03T15:15:15.939Z,99.20
2018-11-03T15:20:19.564Z,99.80
2018-11-03T15:25:23.282Z,99.90
2018-11-03T15:30:26.998Z,99.90
2018-11-03T15:35:30.708Z,99.90
2018-11-03T15:40:34.327Z,99.90
2018-11-03T15:45:38.048Z,99.90
2018-11-03T15:50:47.272Z,99.90
2018-11-03T15:55:50.903Z,99.90
2018-11-03T16:00:54.527Z,99.90
2018-11-03T16:05:58.147Z,99.90
2018-11-03T16:11:01.787Z,99.90
2018-11-03T16:16:05.511Z,99.90
2018-11-03T16:21:09.211Z,99.90
2018-11-03T16:26:12.830Z,99.90
2018-11-03T16:31:16.555Z,99.90
2018-11-03T16:36:20.179Z,99.90
2018-11-03T16:41:23.876Z,99.90
2018-11-03T16:46:27.510Z,99.90
2018-11-03T16:51:31.152Z,99.90
2018-11-03T16:56:34.758Z,99.90
2018-11-03T17:01:39.443Z,99.90
2018-11-03T17:06:43.130Z,99.90
2018-11-03T17:11:46.878Z,99.90
2018-11-03T17:16:50.547Z,99.90
2018-11-03T17:21:54.271Z,99.90
2018-11-03T17:26:57.879Z,99.90
2018-11-03T17:32:01.499Z,99.90
2018-11-03T17:37:05.448Z,99.90
2018-11-03T17:42:09.152Z,99.90
2018-11-03T17:47:12.785Z,99.90
2018-11-03T17:52:16.703Z,99.90
2018-11-03T17:57:20.316Z,99.90
2018-11-03T18:02:23.930Z,99.90
2018-11-03T18:07:27.539Z,99.90
2018-11-03T18:12:31.158Z,99.90
2018-11-03T18:17:34.788Z,99.90
2018-11-03T18:22:38.582Z,99.90
2018-11-03T18:27:42.212Z,99.90
2018-11-03T18:32:45.824Z,99.90
2018-11-03T18:37:49.565Z,99.90
2018-11-03T18:42:53.087Z,99.90
2018-11-03T18:47:56.941Z,99.90
2018-11-03T18:53:00.546Z,99.90
2018-11-03T18:58:04.251Z,99.90
2018-11-03T19:03:07.909Z,99.90
2018-11-03T19:08:11.642Z,99.90
2018-11-03T19:13:15.367Z,99.90
2018-11-03T19:18:19.256Z,99.90
2018-11-03T19:23:22.860Z,99.90
2018-11-03T19:28:26.451Z,99.90
2018-11-03T19:33:30.079Z,99.90
2018-11-03T19:38:33.725Z,99.90
2018-11-03T19:43:37.374Z,99.90
2018-11-03T19:48:40.991Z,99.90
2018-11-03T19:53:44.719Z,99.90
2018-11-03T19:58:48.387Z,99.90
2018-11-03T20:03:52.027Z,99.90
2018-11-03T20:08:55.664Z,99.90
2018-11-03T20:13:59.419Z,99.90
2018-11-03T20:19:03.019Z,99.90
2018-11-03T20:24:06.745Z,99.90
2018-11-03T20:29:10.380Z,99.90
2018-11-03T20:34:14.024Z,99.90
2018-11-03T20:39:17.662Z,99.90
2018-11-03T20:44:21.396Z,99.90
2018-11-03T20:49:25.039Z,99.90
2018-11-03T20:54:28.697Z,99.90
2018-11-03T20:59:32.319Z,99.90
2018-11-03T21:04:35.943Z,99.90
2018-11-03T21:09:39.559Z,99.90
2018-11-03T21:14:43.356Z,99.90
2018-11-03T21:19:46.979Z,99.90
2018-11-03T21:24:50.746Z,99.90
2018-11-03T21:29:54.525Z,99.90
2018-11-03T21:34:58.168Z,99.90
2018-11-03T21:40:01.890Z,99.90
2018-11-03T21:45:06.492Z,99.90
2018-11-03T21:50:10.673Z,99.90
2018-11-03T21:55:14.282Z,99.90
2018-11-03T22:00:17.963Z,99.90
2018-11-03T22:05:21.702Z,99.90
2018-11-03T22:10:25.572Z,99.90
2018-11-03T22:15:29.267Z,99.90
2018-11-03T22:20:32.986Z,99.90
2018-11-03T22:25:36.706Z,99.90
2018-11-03T22:30:40.441Z,99.90
2018-11-03T22:35:44.192Z,99.90
2018-11-03T22:40:47.870Z,99.90
2018-11-03T22:45:51.690Z,99.90
2018-11-03T22:50:55.437Z,99.90
2018-11-03T22:55:59.132Z,99.90
2018-11-03T23:01:02.821Z,99.90
2018-11-03T23:06:06.986Z,99.90
2018-11-03T23:11:10.598Z,99.90
2018-11-03T23:16:14.219Z,99.90
2018-11-03T23:21:17.859Z,99.90
2018-11-03T23:26:22.739Z,99.90
2018-11-03T23:31:26.388Z,99.90
2018-11-03T23:36:30.030Z,99.90
2018-11-03T23:41:33.672Z,99.90
2018-11-03T23:46:37.747Z,99.90
2018-11-03T23:51:41.394Z,99.90
2018-11-03T23:56:45.014Z,99.90
